createdAt,value
2022-10-15T00:01:26.552Z,87.08
2022-10-15T00:03:54.620Z,87.22
2022-10-15T00:06:22.493Z,87.51
2022-10-15T00:08:50.041Z,87.43
2022-10-15T00:11:21.004Z,87.32
2022-10-15T00:13:49.218Z,86.89
2022-10-15T00:16:19.720Z,86.69
2022-10-15T00:18:48.613Z,86.84
2022-10-15T00:21:18.242Z,87.09
2022-10-15T00:23:47.493Z,87.33
2022-10-15T00:26:18.296Z,87.52
2022-10-15T00:28:46.212Z,87.25
2022-10-15T00:31:16.831Z,87.13
2022-10-15T00:33:50.129Z,87.48
2022-10-15T00:36:20.523Z,86.92
2022-10-15T00:38:49.441Z,86.96
2022-10-15T00:41:19.662Z,87.40
2022-10-15T00:43:48.801Z,87.41
2022-10-15T00:46:35.202Z,87.84
2022-10-15T00:49:37.405Z,87.97
2022-10-15T00:52:07.703Z,87.83
2022-10-15T00:54:47.871Z,88.68
2022-10-15T00:57:16.578Z,87.96
2022-10-15T00:59:54.217Z,88.22
2022-10-15T01:02:22.122Z,88.20
2022-10-15T01:04:51.248Z,88.37
2022-10-15T01:07:19.103Z,88.61
2022-10-15T01:09:47.145Z,89.01
2022-10-15T01:12:52.351Z,88.96
2022-10-15T01:15:28.720Z,88.53
2022-10-15T01:17:59.690Z,88.86
2022-10-15T01:20:55.130Z,88.67
2022-10-15T01:24:00.465Z,88.64
2022-10-15T01:26:56.296Z,88.41
2022-10-15T01:29:56.257Z,88.28
2022-10-15T01:32:35.929Z,88.60
2022-10-15T01:35:20.775Z,88.59
2022-10-15T01:38:33.427Z,88.54
2022-10-15T01:41:04.563Z,88.09
2022-10-15T01:44:00.258Z,88.17
2022-10-15T01:47:01.308Z,88.42
2022-10-15T01:49:33.279Z,88.65
2022-10-15T01:52:09.870Z,88.70
2022-10-15T01:54:38.486Z,88.70
2022-10-15T01:57:07.672Z,88.48
2022-10-15T01:59:36.067Z,89.01
2022-10-15T02:02:03.606Z,89.15
2022-10-15T02:04:32.962Z,89.30
2022-10-15T02:07:13.792Z,89.26
2022-10-15T02:09:57.169Z,89.61
2022-10-15T02:12:46.909Z,89.85
2022-10-15T02:15:30.869Z,89.93
2022-10-15T02:18:11.261Z,89.95
2022-10-15T02:21:10.173Z,90.40
2022-10-15T02:23:53.337Z,90.38
2022-10-15T02:26:27.925Z,90.30
2022-10-15T02:28:59.495Z,90.34
2022-10-15T02:31:31.813Z,90.58
2022-10-15T02:34:06.565Z,90.95
2022-10-15T02:36:34.797Z,91.18
2022-10-15T02:39:07.307Z,90.52
2022-10-15T02:41:35.303Z,90.33
2022-10-15T02:44:03.795Z,90.57
2022-10-15T02:46:31.607Z,90.69
2022-10-15T02:48:59.136Z,90.44
2022-10-15T02:51:27.113Z,90.22
2022-10-15T02:53:54.684Z,90.31
2022-10-15T02:56:22.251Z,90.47
2022-10-15T02:58:49.787Z,91.04
2022-10-15T03:01:19.404Z,90.69
2022-10-15T03:03:48.417Z,90.71
2022-10-15T03:06:16.363Z,90.78
2022-10-15T03:08:44.440Z,90.81
2022-10-15T03:11:12.240Z,90.88
2022-10-15T03:13:40.955Z,90.57
2022-10-15T03:16:10.041Z,90.83
2022-10-15T03:18:40.619Z,91.21
2022-10-15T03:21:09.609Z,91.44
2022-10-15T03:23:37.261Z,91.27
2022-10-15T03:26:12.686Z,91.22
2022-10-15T03:28:40.748Z,91.21
2022-10-15T03:31:08.323Z,91.16
2022-10-15T03:33:35.860Z,91.24
2022-10-15T03:36:03.669Z,91.08
2022-10-15T03:38:32.592Z,90.98
2022-10-15T03:41:00.273Z,91.06
2022-10-15T03:43:37.501Z,91.13
2022-10-15T03:46:08.139Z,90.70
2022-10-15T03:48:38.712Z,90.99
2022-10-15T03:51:06.204Z,91.26
2022-10-15T03:53:34.593Z,90.91
2022-10-15T03:56:06.330Z,90.97
2022-10-15T03:58:34.853Z,91.00
2022-10-15T04:01:17.714Z,91.12
2022-10-15T04:03:45.818Z,90.98
2022-10-15T04:06:14.358Z,90.90
2022-10-15T04:08:42.097Z,91.04
2022-10-15T04:11:21.839Z,91.08
2022-10-15T04:13:57.324Z,91.00
2022-10-15T04:16:24.980Z,91.25
2022-10-15T04:18:52.508Z,91.47
2022-10-15T04:21:21.578Z,91.48
2022-10-15T04:23:52.040Z,91.43
2022-10-15T04:26:26.838Z,91.41
2022-10-15T04:28:54.530Z,91.63
2022-10-15T04:31:23.364Z,91.19
2022-10-15T04:33:51.079Z,91.11
2022-10-15T04:36:18.767Z,91.09
2022-10-15T04:38:53.003Z,91.12
2022-10-15T04:41:30.940Z,91.18
2022-10-15T04:44:02.497Z,91.02
2022-10-15T04:46:30.965Z,90.96
2022-10-15T04:49:00.781Z,91.20
2022-10-15T04:51:29.318Z,91.21
2022-10-15T04:54:29.214Z,90.81
2022-10-15T04:56:59.304Z,90.84
2022-10-15T04:59:27.925Z,90.81
2022-10-15T05:02:18.794Z,90.81
2022-10-15T05:04:49.851Z,90.70
2022-10-15T05:07:17.742Z,90.62
2022-10-15T05:09:46.638Z,90.70
2022-10-15T05:12:14.611Z,90.79
2022-10-15T05:14:42.358Z,90.52
2022-10-15T05:17:15.260Z,90.63
2022-10-15T05:19:43.634Z,90.49
2022-10-15T05:22:17.287Z,90.61
2022-10-15T05:24:50.804Z,90.24
2022-10-15T05:27:32.371Z,90.19
2022-10-15T05:30:00.655Z,90.17
2022-10-15T05:32:42.095Z,89.84
2022-10-15T05:35:12.086Z,89.49
2022-10-15T05:37:52.929Z,89.73
2022-10-15T05:40:22.061Z,89.35
2022-10-15T05:43:10.199Z,89.14
2022-10-15T05:45:37.731Z,88.85
2022-10-15T05:48:07.145Z,88.82
2022-10-15T05:50:35.302Z,88.90
2022-10-15T05:53:05.187Z,88.61
2022-10-15T05:56:00.680Z,88.29
2022-10-15T05:58:37.175Z,88.27
2022-10-15T06:01:08.534Z,88.36
2022-10-15T06:03:40.977Z,88.04
2022-10-15T06:06:26.279Z,87.46
2022-10-15T06:08:54.957Z,86.78
2022-10-15T06:11:22.598Z,86.46
2022-10-15T06:13:50.581Z,86.19
2022-10-15T06:16:22.585Z,86.07
2022-10-15T06:18:53.791Z,85.94
2022-10-15T06:21:21.801Z,85.76
2022-10-15T06:23:49.948Z,85.56
2022-10-15T06:26:17.678Z,85.20
2022-10-15T06:28:48.735Z,85.22
2022-10-15T06:31:16.415Z,85.10
2022-10-15T06:33:43.981Z,84.75
2022-10-15T06:36:13.706Z,84.42
2022-10-15T06:38:44.186Z,84.06
2022-10-15T06:41:12.046Z,83.92
2022-10-15T06:43:39.641Z,83.85
2022-10-15T06:46:07.446Z,83.41
2022-10-15T06:48:35.376Z,82.85
2022-10-15T06:51:04.619Z,82.58
2022-10-15T06:53:33.121Z,82.44
2022-10-15T06:56:02.631Z,82.18
2022-10-15T06:58:34.463Z,81.21
2022-10-15T07:01:03.922Z,80.11
2022-10-15T07:03:32.447Z,78.78
2022-10-15T07:06:04.616Z,77.15
2022-10-15T07:08:33.106Z,75.37
2022-10-15T07:11:07.011Z,73.87
2022-10-15T07:13:35.527Z,72.63
2022-10-15T07:16:05.902Z,72.01
2022-10-15T07:18:34.933Z,72.03
2022-10-15T07:21:05.122Z,71.36
2022-10-15T07:23:33.124Z,70.02
2022-10-15T07:26:01.192Z,69.49
2022-10-15T07:28:28.787Z,67.53
2022-10-15T07:31:01.532Z,66.54
2022-10-15T07:33:29.033Z,65.87
2022-10-15T07:36:04.780Z,65.26
2022-10-15T07:38:33.521Z,63.84
2022-10-15T07:41:02.846Z,63.33
2022-10-15T07:43:34.392Z,61.81
2022-10-15T07:46:02.408Z,60.87
2022-10-15T07:48:30.672Z,60.06
2022-10-15T07:51:06.142Z,58.96
2022-10-15T07:53:34.633Z,56.85
2022-10-15T07:56:06.280Z,56.52
2022-10-15T07:58:35.911Z,54.31
2022-10-15T08:01:08.245Z,53.08
2022-10-15T08:03:37.008Z,53.03
2022-10-15T08:06:07.329Z,53.13
2022-10-15T08:08:36.181Z,51.97
2022-10-15T08:11:08.753Z,50.22
2022-10-15T08:13:41.652Z,50.33
2022-10-15T08:16:11.035Z,49.08
2022-10-15T08:18:38.949Z,46.87
2022-10-15T08:21:07.925Z,45.38
2022-10-15T08:23:35.815Z,42.65
2022-10-15T08:26:04.372Z,42.56
2022-10-15T08:28:33.745Z,42.51
2022-10-15T08:31:05.400Z,44.14
2022-10-15T08:33:35.726Z,41.33
2022-10-15T08:36:07.847Z,40.69
2022-10-15T08:38:35.763Z,39.69
2022-10-15T08:41:14.220Z,40.50
2022-10-15T08:43:43.621Z,41.87
2022-10-15T08:46:25.274Z,41.68
2022-10-15T08:48:59.519Z,41.10
2022-10-15T08:51:42.101Z,39.58
2022-10-15T08:54:15.848Z,40.48
2022-10-15T08:57:01.141Z,41.33
2022-10-15T08:59:34.584Z,41.70
2022-10-15T09:02:13.841Z,44.24
2022-10-15T09:04:55.940Z,45.13
2022-10-15T09:07:35.189Z,45.56
2022-10-15T09:10:18.046Z,47.26
2022-10-15T09:13:12.529Z,48.54
2022-10-15T09:15:51.724Z,50.27
2022-10-15T09:18:25.002Z,51.13
2022-10-15T09:20:53.790Z,51.80
2022-10-15T09:23:25.693Z,51.87
2022-10-15T09:26:13.925Z,51.78
2022-10-15T09:28:56.985Z,52.08
2022-10-15T09:31:31.876Z,52.72
2022-10-15T09:34:14.629Z,54.06
2022-10-15T09:36:52.417Z,55.00
2022-10-15T09:39:30.808Z,56.33
2022-10-15T09:42:19.598Z,57.66
2022-10-15T09:44:47.695Z,58.04
2022-10-15T09:47:30.907Z,58.56
2022-10-15T09:50:01.970Z,58.38
2022-10-15T09:52:56.369Z,58.00
2022-10-15T09:55:26.830Z,56.66
2022-10-15T09:57:59.377Z,56.14
2022-10-15T10:00:55.911Z,55.41
2022-10-15T10:03:26.854Z,52.96
2022-10-15T10:06:04.473Z,49.33
2022-10-15T10:09:14.537Z,47.38
2022-10-15T10:11:53.564Z,45.68
2022-10-15T10:14:24.262Z,45.91
2022-10-15T10:17:18.012Z,45.98
2022-10-15T10:20:04.757Z,46.55
2022-10-15T10:22:50.421Z,45.78
2022-10-15T10:25:37.512Z,43.16
2022-10-15T10:28:14.444Z,41.36
2022-10-15T10:30:54.209Z,39.82
2022-10-15T10:33:27.686Z,39.62
2022-10-15T10:35:56.343Z,38.48
2022-10-15T10:38:31.529Z,38.98
2022-10-15T10:41:06.794Z,38.66
2022-10-15T10:43:39.235Z,38.46
2022-10-15T10:46:14.650Z,37.73
2022-10-15T10:48:52.702Z,37.32
2022-10-15T10:51:26.711Z,36.81
2022-10-15T10:54:00.333Z,35.88
2022-10-15T10:56:34.354Z,36.20
2022-10-15T10:59:13.577Z,38.23
2022-10-15T11:01:42.687Z,39.98
2022-10-15T11:04:25.116Z,40.34
2022-10-15T11:07:06.961Z,41.27
2022-10-15T11:09:47.935Z,42.07
2022-10-15T11:12:34.781Z,43.83
2022-10-15T11:15:20.546Z,45.68
2022-10-15T11:18:03.515Z,47.00
2022-10-15T11:20:59.726Z,46.97
2022-10-15T11:24:01.290Z,45.54
2022-10-15T11:27:06.388Z,44.36
2022-10-15T11:30:04.968Z,44.91
2022-10-15T11:33:07.753Z,44.67
2022-10-15T11:35:53.792Z,45.26
2022-10-15T11:38:27.577Z,45.82
2022-10-15T11:41:13.711Z,45.87
2022-10-15T11:44:06.277Z,46.21
2022-10-15T11:46:46.865Z,45.56
2022-10-15T11:49:40.593Z,46.26
2022-10-15T11:52:33.776Z,46.86
2022-10-15T11:55:14.022Z,47.37
2022-10-15T11:57:43.353Z,48.15
2022-10-15T12:00:39.698Z,48.43
2022-10-15T12:03:16.756Z,48.44
2022-10-15T12:05:54.693Z,49.08
2022-10-15T12:08:33.770Z,49.77
2022-10-15T12:11:24.673Z,50.10
2022-10-15T12:14:01.070Z,50.37
2022-10-15T12:16:39.436Z,50.54
2022-10-15T12:21:40.413Z,50.40
2022-10-15T12:24:40.836Z,51.10
2022-10-15T12:35:33.222Z,52.61
2022-10-15T12:38:27.105Z,52.99
2022-10-15T12:41:16.444Z,53.01
2022-10-15T12:43:47.741Z,53.14
2022-10-15T12:46:14.134Z,53.18
2022-10-15T12:48:43.646Z,53.37
2022-10-15T12:51:34.260Z,53.83
2022-10-15T12:54:01.719Z,54.16
2022-10-15T12:56:41.916Z,54.39
2022-10-15T12:59:30.147Z,54.49
2022-10-15T13:01:59.278Z,54.32
2022-10-15T13:04:37.505Z,54.54
2022-10-15T13:07:05.616Z,54.59
2022-10-15T13:09:31.880Z,54.78
2022-10-15T13:12:00.173Z,54.77
2022-10-15T13:14:47.851Z,54.97
2022-10-15T13:17:20.841Z,54.91
2022-10-15T13:19:55.833Z,55.10
2022-10-15T13:22:26.154Z,55.36
2022-10-15T13:24:52.716Z,55.39
2022-10-15T13:27:25.107Z,55.58
2022-10-15T13:30:00.469Z,55.61
2022-10-15T13:32:28.520Z,55.79
2022-10-15T13:34:56.819Z,55.88
2022-10-15T13:37:33.504Z,55.90
2022-10-15T13:40:06.558Z,56.27
2022-10-15T13:42:34.913Z,56.32
2022-10-15T13:45:16.661Z,56.29
2022-10-15T13:47:52.333Z,56.15
2022-10-15T13:50:25.606Z,56.53
2022-10-15T13:52:54.434Z,56.47
2022-10-15T13:55:24.501Z,56.71
2022-10-15T13:57:56.369Z,56.77
2022-10-15T14:00:26.328Z,57.03
2022-10-15T14:03:22.132Z,57.21
2022-10-15T14:05:50.900Z,57.74
2022-10-15T14:08:23.080Z,58.06
2022-10-15T14:10:51.645Z,58.13
2022-10-15T14:13:18.208Z,58.29
2022-10-15T14:16:21.647Z,58.04
2022-10-15T14:19:07.975Z,58.43
2022-10-15T14:21:35.474Z,58.67
2022-10-15T14:24:14.265Z,58.82
2022-10-15T14:26:41.740Z,58.61
2022-10-15T14:29:36.408Z,58.77
2022-10-15T14:32:18.800Z,58.90
2022-10-15T14:34:45.072Z,58.84
2022-10-15T14:37:43.378Z,58.78
2022-10-15T14:40:20.795Z,59.12
2022-10-15T14:43:06.740Z,59.36
2022-10-15T14:45:56.513Z,59.17
2022-10-15T14:48:26.505Z,59.55
2022-10-15T14:51:00.527Z,59.30
2022-10-15T14:53:31.130Z,59.88
2022-10-15T14:56:01.294Z,60.05
2022-10-15T14:58:29.441Z,59.91
2022-10-15T15:01:01.150Z,60.06
2022-10-15T15:03:38.309Z,60.31
2022-10-15T15:06:04.868Z,60.42
2022-10-15T15:08:31.492Z,60.43
2022-10-15T15:11:00.994Z,60.79
2022-10-15T15:13:30.312Z,61.25
2022-10-15T15:15:56.815Z,61.38
2022-10-15T15:18:23.132Z,61.67
2022-10-15T15:20:50.576Z,61.79
2022-10-15T15:23:23.354Z,61.94
2022-10-15T15:25:51.981Z,62.04
2022-10-15T15:28:21.440Z,62.14
2022-10-15T15:30:57.293Z,61.97
2022-10-15T15:33:24.091Z,62.38
2022-10-15T15:35:54.072Z,62.43
2022-10-15T15:38:23.228Z,62.59
2022-10-15T15:40:50.731Z,63.22
2022-10-15T15:43:18.326Z,62.89
2022-10-15T15:45:46.407Z,62.90
2022-10-15T15:48:13.516Z,63.28
2022-10-15T15:50:41.018Z,63.68
2022-10-15T15:53:20.858Z,64.16
2022-10-15T15:55:48.663Z,64.13
2022-10-15T15:58:14.855Z,63.92
2022-10-15T16:00:41.373Z,63.75
2022-10-15T16:03:15.504Z,63.65
2022-10-15T16:05:41.981Z,63.73
2022-10-15T16:08:10.822Z,63.97
2022-10-15T16:10:36.974Z,64.13
2022-10-15T16:13:04.074Z,63.91
2022-10-15T16:15:30.329Z,64.18
2022-10-15T16:17:57.007Z,64.08
2022-10-15T16:20:23.978Z,64.28
2022-10-15T16:22:53.074Z,64.82
2022-10-15T16:25:21.450Z,65.06
2022-10-15T16:27:51.010Z,64.84
2022-10-15T16:30:18.513Z,65.04
2022-10-15T16:32:45.909Z,65.42
2022-10-15T16:35:12.110Z,66.22
2022-10-15T16:37:38.685Z,66.77
2022-10-15T16:40:05.500Z,66.84
2022-10-15T16:42:31.691Z,67.21
2022-10-15T16:44:57.921Z,67.29
2022-10-15T16:47:24.316Z,68.16
2022-10-15T16:49:50.813Z,68.00
2022-10-15T16:52:17.082Z,69.02
2022-10-15T16:54:43.600Z,68.68
2022-10-15T16:57:09.842Z,68.77
2022-10-15T16:59:36.082Z,69.38
2022-10-15T17:02:02.509Z,69.98
2022-10-15T17:04:28.971Z,69.95
2022-10-15T17:06:55.455Z,69.96
2022-10-15T17:09:22.964Z,70.10
2022-10-15T17:11:49.268Z,70.03
2022-10-15T17:14:17.604Z,70.74
2022-10-15T17:16:49.367Z,71.18
2022-10-15T17:19:18.965Z,71.25
2022-10-15T17:21:47.286Z,70.68
2022-10-15T17:24:15.617Z,70.99
2022-10-15T17:26:43.284Z,71.59
2022-10-15T17:29:12.915Z,71.64
2022-10-15T17:31:39.083Z,71.72
2022-10-15T17:34:09.372Z,71.41
2022-10-15T17:36:42.139Z,71.07
2022-10-15T17:39:09.618Z,71.03
2022-10-15T17:41:35.899Z,71.06
2022-10-15T17:44:02.711Z,71.36
2022-10-15T17:46:30.103Z,71.92
2022-10-15T17:48:57.746Z,72.40
2022-10-15T17:51:29.099Z,73.22
2022-10-15T17:53:58.229Z,72.16
2022-10-15T17:56:33.052Z,72.12
2022-10-15T17:59:00.994Z,71.84
2022-10-15T18:01:39.446Z,71.89
2022-10-15T18:04:12.507Z,72.43
2022-10-15T18:06:42.977Z,71.99
2022-10-15T18:09:12.435Z,72.21
2022-10-15T18:11:38.661Z,72.59
2022-10-15T18:14:04.877Z,72.84
2022-10-15T18:23:19.271Z,72.67
2022-10-15T18:25:47.263Z,72.88
2022-10-15T18:28:16.549Z,73.07
2022-10-15T18:30:44.717Z,72.91
2022-10-15T18:33:13.955Z,73.19
2022-10-15T18:35:41.457Z,73.36
2022-10-15T18:38:08.947Z,73.76
2022-10-15T18:40:41.070Z,73.53
2022-10-15T18:43:08.786Z,73.41
2022-10-15T18:45:36.948Z,73.48
2022-10-15T18:48:04.589Z,73.47
2022-10-15T18:50:32.541Z,73.51
2022-10-15T18:53:03.104Z,73.67
2022-10-15T18:55:32.088Z,74.76
2022-10-15T18:58:01.792Z,74.90
2022-10-15T19:00:31.524Z,74.60
2022-10-15T19:02:59.860Z,74.33
2022-10-15T19:05:27.504Z,74.27
2022-10-15T19:07:55.668Z,74.47
2022-10-15T19:10:23.647Z,74.60
2022-10-15T19:12:53.469Z,74.60
2022-10-15T19:15:22.959Z,74.64
2022-10-15T19:17:50.487Z,74.61
2022-10-15T19:20:18.091Z,74.88
2022-10-15T19:22:46.757Z,74.86
2022-10-15T19:25:14.287Z,74.34
2022-10-15T19:27:42.729Z,74.39
2022-10-15T19:30:10.774Z,74.30
2022-10-15T19:32:38.549Z,74.03
2022-10-15T19:35:06.736Z,73.92
2022-10-15T19:37:34.703Z,73.98
2022-10-15T19:40:02.344Z,73.88
2022-10-15T19:42:30.392Z,74.10
2022-10-15T19:44:57.983Z,74.47
2022-10-15T19:47:25.734Z,74.64
2022-10-15T19:49:55.041Z,74.46
2022-10-15T19:52:22.905Z,74.45
2022-10-15T19:54:51.884Z,74.27
2022-10-15T19:57:19.552Z,73.90
2022-10-15T19:59:47.999Z,74.47
2022-10-15T20:02:16.419Z,74.34
2022-10-15T20:04:43.917Z,74.56
2022-10-15T20:07:11.619Z,74.26
2022-10-15T20:09:39.144Z,74.45
2022-10-15T20:12:07.366Z,74.64
2022-10-15T20:14:34.986Z,74.57
2022-10-15T20:17:03.571Z,74.80
2022-10-15T20:19:31.158Z,74.92
2022-10-15T20:21:58.769Z,74.55
2022-10-15T20:24:26.451Z,74.48
2022-10-15T20:26:54.264Z,74.13
2022-10-15T20:29:22.000Z,74.84
2022-10-15T20:31:51.303Z,75.24
2022-10-15T20:34:19.462Z,75.36
2022-10-15T20:36:52.118Z,75.22
2022-10-15T20:39:20.873Z,74.80
2022-10-15T20:41:48.607Z,74.94
2022-10-15T20:44:17.386Z,74.87
2022-10-15T20:46:53.426Z,74.69
2022-10-15T20:49:35.325Z,74.94
2022-10-15T20:52:03.972Z,75.30
2022-10-15T20:54:32.099Z,75.74
2022-10-15T20:56:59.955Z,75.39
2022-10-15T20:59:30.189Z,75.22
2022-10-15T21:01:58.444Z,75.10
2022-10-15T21:04:26.021Z,74.55
2022-10-15T21:06:53.643Z,74.43
2022-10-15T21:09:21.217Z,74.53
2022-10-15T21:11:48.725Z,74.33
2022-10-15T21:14:16.272Z,74.55
2022-10-15T21:16:43.849Z,74.87
2022-10-15T21:19:11.485Z,74.93
2022-10-15T21:21:39.605Z,74.66
2022-10-15T21:24:07.184Z,74.39
2022-10-15T21:26:34.904Z,74.14
2022-10-15T21:29:02.923Z,74.26
2022-10-15T21:31:30.737Z,73.98
2022-10-15T21:33:58.444Z,73.98
2022-10-15T21:36:27.655Z,73.86
2022-10-15T21:39:03.752Z,73.84
2022-10-15T21:41:33.473Z,74.27
2022-10-15T21:44:02.083Z,74.75
2022-10-15T21:46:32.583Z,74.52
2022-10-15T21:49:01.063Z,74.29
2022-10-15T21:51:33.700Z,74.01
2022-10-15T21:54:02.900Z,73.94
2022-10-15T21:56:31.768Z,73.80
2022-10-15T21:58:59.751Z,73.58
2022-10-15T22:01:32.995Z,73.68
2022-10-15T22:04:03.043Z,73.40
2022-10-15T22:06:32.169Z,73.69
2022-10-15T22:08:59.994Z,73.74
2022-10-15T22:11:34.367Z,73.45
2022-10-15T22:14:04.653Z,73.13
2022-10-15T22:16:34.618Z,72.63
2022-10-15T22:19:02.287Z,72.43
2022-10-15T22:21:32.603Z,72.30
2022-10-15T22:24:02.519Z,72.16
2022-10-15T22:26:34.617Z,72.24
2022-10-15T22:29:04.080Z,72.04
2022-10-15T22:31:32.039Z,72.17
2022-10-15T22:33:59.769Z,72.13
2022-10-15T22:36:31.298Z,72.57
2022-10-15T22:39:07.879Z,73.04
2022-10-15T22:41:39.842Z,72.81
2022-10-15T22:44:09.893Z,72.40
2022-10-15T22:46:39.236Z,72.15
2022-10-15T22:49:07.814Z,71.99
2022-10-15T22:51:35.682Z,71.93
2022-10-15T22:54:03.498Z,71.86
2022-10-15T22:56:31.660Z,71.91
2022-10-15T22:59:00.223Z,72.00
2022-10-15T23:01:30.650Z,71.96
2022-10-15T23:04:01.584Z,71.90
2022-10-15T23:06:30.918Z,72.36
2022-10-15T23:08:58.741Z,72.74
2022-10-15T23:11:33.859Z,72.58
2022-10-15T23:14:04.361Z,72.36
2022-10-15T23:16:35.570Z,72.11
2022-10-15T23:19:05.565Z,72.05
2022-10-15T23:21:36.886Z,71.79
2022-10-15T23:24:06.276Z,71.94
2022-10-15T23:26:34.221Z,71.89
2022-10-15T23:29:04.044Z,71.93
2022-10-15T23:31:34.561Z,71.67
2022-10-15T23:34:03.606Z,71.70
2022-10-15T23:36:32.795Z,72.08
2022-10-15T23:39:03.685Z,72.43
2022-10-15T23:41:31.747Z,71.77
2022-10-15T23:43:59.837Z,71.32
2022-10-15T23:46:27.424Z,70.97
2022-10-15T23:48:54.928Z,70.64
2022-10-15T23:51:30.256Z,70.38
2022-10-15T23:53:59.254Z,70.31
2022-10-15T23:56:27.194Z,70.23
2022-10-15T23:58:57.126Z,69.92
